Time;durP1;ratioP1;P1;durP2;ratioP2;P2;SDS_P1;SDS_P2;PMS_P1;PMS_P2;Temp;Humidity;BMP_temperature;BMP_pressure;BME280_temperature;BME280_humidity;BME280_pressure;Samples;Min_cycle;Max_cycle;Signal;HPM_P1;HPM_P2
2022/08/13 00:02:09;;;;;;;15.20;5.95;;;;;;;;;;5016094;28;20057;-73
2022/08/13 00:04:36;;;;;;;15.45;5.55;;;;;;;;;;5015591;28;20041;-73
2022/08/13 00:09:31;;;;;;;8.73;6.07;;;;;;;;;;5015826;28;20111;-73
2022/08/13 00:14:44;;;;;;;14.60;6.82;;;;;;;;;;5015222;28;20064;-73
2022/08/13 00:17:14;;;;;;;11.20;5.32;;;;;;;;;;5016154;28;20493;-73
2022/08/13 00:19:41;;;;;;;10.05;5.50;;;;;;;;;;5015263;28;20064;-73
2022/08/13 00:22:08;;;;;;;13.10;5.72;;;;;;;;;;5015591;28;20046;-73
2022/08/13 00:24:35;;;;;;;11.55;5.75;;;;;;;;;;5015598;28;20034;-73
2022/08/13 00:27:01;;;;;;;7.65;5.45;;;;;;;;;;5007790;28;20113;-73
2022/08/13 00:29:28;;;;;;;11.00;6.35;;;;;;;;;;5003565;28;20038;-73
2022/08/13 00:31:54;;;;;;;11.23;6.07;;;;;;;;;;5002337;28;20053;-73
2022/08/13 00:34:21;;;;;;;14.15;6.40;;;;;;;;;;5004395;28;20033;-73
2022/08/13 00:36:47;;;;;;;12.73;5.93;;;;;;;;;;5003515;28;20058;-73
2022/08/13 00:39:13;;;;;;;9.77;6.10;;;;;;;;;;5002910;28;20042;-73
2022/08/13 00:41:44;;;;;;;10.20;6.00;;;;;;;;;;5004546;28;20077;-73
2022/08/13 00:44:11;;;;;;;9.52;6.28;;;;;;;;;;5003773;28;20089;-73
2022/08/13 00:46:38;;;;;;;7.03;5.38;;;;;;;;;;5002090;28;20072;-73
2022/08/13 00:49:05;;;;;;;9.27;5.82;;;;;;;;;;5003446;28;20069;-73
2022/08/13 00:51:32;;;;;;;8.63;6.13;;;;;;;;;;5003507;28;20042;-73
2022/08/13 00:54:01;;;;;;;10.50;5.95;;;;;;;;;;5002295;28;20132;-73
2022/08/13 00:56:27;;;;;;;10.88;6.20;;;;;;;;;;5003078;28;20500;-73
2022/08/13 00:58:56;;;;;;;10.35;5.93;;;;;;;;;;5004083;28;20065;-73
2022/08/13 01:01:24;;;;;;;8.07;5.75;;;;;;;;;;5004944;28;20042;-73
2022/08/13 01:03:50;;;;;;;12.90;6.68;;;;;;;;;;5002545;28;20061;-73
2022/08/13 01:06:18;;;;;;;10.60;6.55;;;;;;;;;;5004108;28;20085;-73
2022/08/13 01:08:44;;;;;;;13.45;6.07;;;;;;;;;;5002369;28;20796;-73
2022/08/13 01:11:11;;;;;;;12.10;6.78;;;;;;;;;;5002620;28;20049;-73
2022/08/13 01:13:39;;;;;;;7.60;6.63;;;;;;;;;;5004006;28;20046;-73
2022/08/13 01:16:08;;;;;;;10.00;6.40;;;;;;;;;;5002225;28;20042;-73
2022/08/13 01:18:36;;;;;;;7.57;6.40;;;;;;;;;;5001961;28;20050;-73
2022/08/13 01:21:10;;;;;;;10.25;6.05;;;;;;;;;;4994654;28;20512;-73
2022/08/13 01:23:37;;;;;;;13.00;6.93;;;;;;;;;;4995039;28;20034;-73
2022/08/13 01:26:03;;;;;;;10.15;6.60;;;;;;;;;;4994774;28;20528;-73
2022/08/13 01:28:30;;;;;;;9.75;7.05;;;;;;;;;;4994760;28;20054;-73
2022/08/13 01:30:57;;;;;;;11.18;6.70;;;;;;;;;;5001290;28;20045;-73
2022/08/13 01:33:24;;;;;;;13.25;6.25;;;;;;;;;;5007091;28;20042;-73
2022/08/13 01:35:50;;;;;;;10.18;6.63;;;;;;;;;;5007449;28;20045;-73
2022/08/13 01:38:17;;;;;;;8.68;6.25;;;;;;;;;;5006996;28;20113;-73
2022/08/13 01:40:44;;;;;;;8.13;6.63;;;;;;;;;;5006016;28;20100;-73
2022/08/13 01:43:11;;;;;;;10.75;6.47;;;;;;;;;;5006001;28;20033;-73
2022/08/13 01:45:38;;;;;;;9.65;6.40;;;;;;;;;;5007770;28;20037;-73
2022/08/13 01:50:49;;;;;;;10.40;6.97;;;;;;;;;;5007478;28;20444;-73
2022/08/13 01:53:18;;;;;;;10.73;7.18;;;;;;;;;;5007635;28;20567;-73
2022/08/13 01:55:45;;;;;;;12.30;6.65;;;;;;;;;;5006163;28;20064;-73
2022/08/13 01:58:13;;;;;;;9.93;6.70;;;;;;;;;;5006035;28;20527;-73
2022/08/13 02:00:43;;;;;;;12.10;7.32;;;;;;;;;;5007822;28;20037;-73
2022/08/13 02:03:11;;;;;;;9.77;7.18;;;;;;;;;;5007006;28;20137;-73
2022/08/13 02:05:38;;;;;;;11.52;6.93;;;;;;;;;;5007070;28;20116;-73
2022/08/13 02:08:05;;;;;;;10.50;7.07;;;;;;;;;;5005379;28;20049;-73
2022/08/13 02:10:31;;;;;;;11.52;7.38;;;;;;;;;;5006206;28;20122;-73
2022/08/13 02:12:58;;;;;;;12.20;7.72;;;;;;;;;;5007287;28;20058;-73
2022/08/13 02:15:24;;;;;;;11.35;7.28;;;;;;;;;;5008279;28;20060;-73
2022/08/13 02:17:50;;;;;;;11.75;7.68;;;;;;;;;;4999990;28;20396;-73
2022/08/13 02:20:17;;;;;;;11.93;7.10;;;;;;;;;;5017146;28;20038;-72
2022/08/13 02:22:46;;;;;;;15.68;7.90;;;;;;;;;;5016161;28;20046;-73
2022/08/13 02:25:17;;;;;;;9.95;7.88;;;;;;;;;;5017048;28;20049;-72
2022/08/13 02:27:43;;;;;;;10.23;8.15;;;;;;;;;;5017293;28;20092;-72
2022/08/13 02:30:10;;;;;;;9.63;7.57;;;;;;;;;;5017326;28;20520;-73
2022/08/13 02:32:38;;;;;;;12.13;8.35;;;;;;;;;;5017051;28;20045;-72
2022/08/13 02:35:04;;;;;;;11.35;7.60;;;;;;;;;;5017546;28;20038;-73
2022/08/13 02:37:32;;;;;;;11.02;8.05;;;;;;;;;;5017759;28;20125;-73
2022/08/13 02:39:59;;;;;;;12.73;8.82;;;;;;;;;;5017507;28;20068;-73
2022/08/13 02:42:28;;;;;;;13.18;9.05;;;;;;;;;;5016841;28;20516;-73
2022/08/13 02:44:54;;;;;;;11.13;8.65;;;;;;;;;;5017424;28;20121;-73
2022/08/13 02:47:21;;;;;;;13.75;8.95;;;;;;;;;;5017046;28;20045;-73
2022/08/13 02:49:51;;;;;;;10.15;8.73;;;;;;;;;;5017315;28;20080;-73
2022/08/13 02:52:19;;;;;;;12.70;8.85;;;;;;;;;;5017462;28;20046;-73
2022/08/13 02:54:46;;;;;;;12.18;9.13;;;;;;;;;;5016993;28;20030;-73
2022/08/13 02:57:12;;;;;;;10.25;9.05;;;;;;;;;;5017237;28;20103;-73
2022/08/13 02:59:39;;;;;;;11.07;9.38;;;;;;;;;;5017146;28;20038;-73
2022/08/13 03:02:07;;;;;;;12.85;9.57;;;;;;;;;;5016922;28;20046;-73
2022/08/13 03:04:33;;;;;;;10.95;8.88;;;;;;;;;;5016685;28;20088;-73
2022/08/13 03:07:00;;;;;;;14.55;9.52;;;;;;;;;;5016560;28;20520;-73
2022/08/13 03:09:26;;;;;;;11.38;9.25;;;;;;;;;;5016611;28;20131;-73
2022/08/13 03:11:52;;;;;;;12.55;9.27;;;;;;;;;;5016581;28;20131;-73
2022/08/13 03:14:19;;;;;;;15.75;9.90;;;;;;;;;;5016516;28;20121;-73
2022/08/13 03:16:45;;;;;;;11.40;9.90;;;;;;;;;;5016849;28;20057;-73
2022/08/13 03:19:12;;;;;;;13.93;10.50;;;;;;;;;;5016546;28;20034;-73
2022/08/13 03:21:39;;;;;;;16.42;10.38;;;;;;;;;;5017291;28;20046;-73
2022/08/13 03:24:07;;;;;;;11.80;10.27;;;;;;;;;;5016627;28;20117;-73
2022/08/13 03:26:33;;;;;;;14.75;10.38;;;;;;;;;;5016606;28;20044;-73
2022/08/13 03:29:01;;;;;;;12.32;10.35;;;;;;;;;;5016573;28;20046;-73
2022/08/13 03:31:28;;;;;;;17.08;11.18;;;;;;;;;;5016517;28;20126;-73
2022/08/13 03:33:54;;;;;;;11.57;10.38;;;;;;;;;;5016175;28;20044;-73
2022/08/13 03:36:21;;;;;;;14.60;11.00;;;;;;;;;;5016398;28;20038;-73
2022/08/13 03:38:48;;;;;;;14.98;11.05;;;;;;;;;;5016570;28;20099;-73
2022/08/13 03:41:14;;;;;;;12.00;10.50;;;;;;;;;;5016331;28;20046;-73
2022/08/13 03:43:44;;;;;;;17.63;11.68;;;;;;;;;;5016282;28;20042;-73
2022/08/13 03:46:17;;;;;;;14.17;11.70;;;;;;;;;;5016227;28;20045;-73
2022/08/13 03:48:44;;;;;;;14.40;12.13;;;;;;;;;;5015702;28;20277;-73
2022/08/13 03:51:11;;;;;;;12.68;10.80;;;;;;;;;;5015800;28;20358;-73
2022/08/13 03:53:38;;;;;;;12.88;11.50;;;;;;;;;;5016321;28;20142;-73
2022/08/13 03:56:06;;;;;;;14.95;12.27;;;;;;;;;;5015575;28;20480;-73
2022/08/13 03:58:32;;;;;;;19.65;12.50;;;;;;;;;;5016155;28;20526;-73
2022/08/13 04:00:59;;;;;;;16.90;11.60;;;;;;;;;;5016031;28;20114;-73
2022/08/13 04:03:30;;;;;;;16.48;11.45;;;;;;;;;;5015795;28;20120;-73
2022/08/13 04:05:56;;;;;;;;;;;;;;;;;;5016146;28;20124;-73
2022/08/13 04:08:22;;;;;;;13.70;12.23;;;;;;;;;;5015133;28;19960;-74
2022/08/13 04:10:49;;;;;;;15.07;11.98;;;;;;;;;;5013837;28;20062;-74
2022/08/13 04:13:15;;;;;;;20.33;11.80;;;;;;;;;;5015196;28;20122;-74
2022/08/13 04:15:43;;;;;;;17.83;11.25;;;;;;;;;;5015376;28;20089;-74
2022/08/13 04:18:12;;;;;;;13.90;11.93;;;;;;;;;;5014758;28;20132;-74
2022/08/13 04:20:42;;;;;;;17.73;11.90;;;;;;;;;;5014748;28;20034;-74
2022/08/13 04:23:16;;;;;;;14.60;12.13;;;;;;;;;;5015606;28;20128;-74
2022/08/13 04:25:46;;;;;;;13.90;11.73;;;;;;;;;;5015495;28;20123;-74
2022/08/13 04:28:12;;;;;;;15.23;12.18;;;;;;;;;;5015002;28;20034;-74
2022/08/13 04:30:41;;;;;;;16.42;12.10;;;;;;;;;;5015433;28;20037;-75
2022/08/13 04:33:16;;;;;;;16.20;12.07;;;;;;;;;;5014863;28;20045;-74
2022/08/13 04:35:44;;;;;;;14.45;11.98;;;;;;;;;;5015383;28;20091;-74
2022/08/13 04:38:11;;;;;;;17.23;13.13;;;;;;;;;;5015072;28;20087;-74
2022/08/13 04:40:38;;;;;;;16.95;12.10;;;;;;;;;;5014974;28;20034;-75
2022/08/13 04:43:05;;;;;;;14.70;12.15;;;;;;;;;;5015224;28;20073;-74
2022/08/13 04:45:32;;;;;;;21.27;12.68;;;;;;;;;;5015193;28;20120;-74
2022/08/13 04:47:59;;;;;;;16.52;12.20;;;;;;;;;;5014296;28;20061;-74
2022/08/13 04:50:26;;;;;;;15.35;13.20;;;;;;;;;;5014797;28;20041;-74
2022/08/13 04:52:53;;;;;;;13.13;11.73;;;;;;;;;;5014968;28;20057;-74
2022/08/13 04:55:19;;;;;;;14.85;12.70;;;;;;;;;;5014737;28;20042;-73
2022/08/13 04:57:45;;;;;;;18.58;12.45;;;;;;;;;;5015430;28;20520;-73
2022/08/13 05:00:12;;;;;;;17.52;12.80;;;;;;;;;;5014689;28;20061;-73
2022/08/13 05:02:39;;;;;;;21.98;12.30;;;;;;;;;;5014667;28;20046;-73
2022/08/13 05:05:06;;;;;;;16.50;12.13;;;;;;;;;;5014766;28;20061;-73
2022/08/13 05:07:33;;;;;;;16.85;12.43;;;;;;;;;;5015108;28;20539;-73
2022/08/13 05:09:59;;;;;;;15.93;11.90;;;;;;;;;;5014565;28;20535;-73
2022/08/13 05:12:26;;;;;;;21.35;12.23;;;;;;;;;;5014795;28;20057;-73
2022/08/13 05:14:53;;;;;;;18.75;12.30;;;;;;;;;;5014535;28;20488;-73
2022/08/13 05:17:19;;;;;;;15.52;12.73;;;;;;;;;;5014338;28;20116;-73
2022/08/13 05:19:46;;;;;;;16.38;12.13;;;;;;;;;;5014560;28;20092;-73
2022/08/13 05:22:12;;;;;;;14.82;12.57;;;;;;;;;;5014762;28;20198;-73
2022/08/13 05:24:38;;;;;;;20.52;12.82;;;;;;;;;;5014861;28;20062;-73
2022/08/13 05:27:05;;;;;;;13.95;12.35;;;;;;;;;;5015310;28;20121;-73
2022/08/13 05:29:31;;;;;;;14.98;12.45;;;;;;;;;;5014574;28;20040;-73
2022/08/13 05:31:57;;;;;;;17.83;12.45;;;;;;;;;;5014162;28;20627;-73
2022/08/13 05:34:25;;;;;;;18.35;12.80;;;;;;;;;;5014611;28;20038;-73
2022/08/13 05:36:52;;;;;;;17.77;13.00;;;;;;;;;;5014001;28;20045;-73
2022/08/13 05:39:18;;;;;;;17.83;12.43;;;;;;;;;;5014225;28;20057;-73
2022/08/13 05:41:46;;;;;;;14.55;12.35;;;;;;;;;;5014298;28;20103;-73
2022/08/13 05:44:12;;;;;;;16.35;11.70;;;;;;;;;;5014626;28;20040;-73
2022/08/13 05:46:39;;;;;;;15.05;12.20;;;;;;;;;;4997006;28;20404;-73
2022/08/13 05:49:05;;;;;;;19.83;12.95;;;;;;;;;;5013963;28;20057;-73
2022/08/13 05:51:32;;;;;;;20.42;13.18;;;;;;;;;;5014069;28;20042;-73
2022/08/13 05:53:59;;;;;;;13.90;12.20;;;;;;;;;;5014430;28;20042;-73
2022/08/13 05:56:26;;;;;;;18.20;12.38;;;;;;;;;;5014022;28;20068;-73
2022/08/13 05:58:53;;;;;;;19.10;12.23;;;;;;;;;;5014843;28;20073;-73
2022/08/13 06:04:11;;;;;;;12.60;11.05;;;;;;;;;;5013703;28;20149;-73
2022/08/13 06:06:38;;;;;;;16.33;12.40;;;;;;;;;;5014384;28;20037;-73
2022/08/13 06:09:05;;;;;;;15.02;11.50;;;;;;;;;;5014006;28;20033;-73
2022/08/13 06:11:31;;;;;;;16.50;10.98;;;;;;;;;;5013935;28;20566;-73
2022/08/13 06:13:58;;;;;;;15.07;11.00;;;;;;;;;;5014317;28;20121;-74
2022/08/13 06:16:28;;;;;;;17.98;11.15;;;;;;;;;;5014290;28;20399;-73
2022/08/13 06:18:57;;;;;;;15.02;10.98;;;;;;;;;;5016725;28;20042;-73
2022/08/13 06:21:24;;;;;;;14.80;10.43;;;;;;;;;;5018088;28;20432;-73
2022/08/13 06:23:52;;;;;;;14.57;11.10;;;;;;;;;;5017394;28;20477;-73
2022/08/13 06:26:19;;;;;;;14.40;10.73;;;;;;;;;;5017722;28;20065;-73
2022/08/13 06:28:46;;;;;;;14.10;10.55;;;;;;;;;;5017938;28;20057;-73
2022/08/13 06:31:20;;;;;;;15.40;11.07;;;;;;;;;;5017643;28;20092;-73
2022/08/13 06:33:46;;;;;;;15.70;10.57;;;;;;;;;;5017544;28;20037;-73
2022/08/13 06:36:14;;;;;;;15.40;10.65;;;;;;;;;;5017608;28;20088;-74
2022/08/13 06:38:50;;;;;;;12.63;10.32;;;;;;;;;;5018086;28;20103;-73
2022/08/13 06:41:17;;;;;;;11.73;9.90;;;;;;;;;;5017510;28;20517;-73
2022/08/13 06:43:44;;;;;;;15.52;10.63;;;;;;;;;;5017195;28;20046;-73
2022/08/13 06:46:12;;;;;;;16.00;10.30;;;;;;;;;;5017706;28;20069;-73
2022/08/13 06:48:41;;;;;;;15.38;10.48;;;;;;;;;;5016781;28;20062;-73
2022/08/13 06:51:09;;;;;;;11.57;10.23;;;;;;;;;;5017272;28;20505;-73
2022/08/13 06:53:35;;;;;;;12.65;10.98;;;;;;;;;;5016987;28;20049;-73
2022/08/13 06:56:06;;;;;;;12.32;9.90;;;;;;;;;;5017829;28;20038;-73
2022/08/13 06:58:32;;;;;;;14.40;10.70;;;;;;;;;;5017346;28;20057;-73
2022/08/13 07:00:59;;;;;;;15.25;10.15;;;;;;;;;;5017021;28;20042;-73
2022/08/13 07:03:27;;;;;;;16.55;10.43;;;;;;;;;;5016833;28;20132;-73
2022/08/13 07:05:56;;;;;;;14.05;10.05;;;;;;;;;;5017064;28;20046;-73
2022/08/13 07:08:22;;;;;;;17.83;10.57;;;;;;;;;;5016664;28;20075;-73
2022/08/13 07:10:51;;;;;;;16.77;10.88;;;;;;;;;;5016937;28;20104;-73
2022/08/13 07:13:17;;;;;;;17.40;10.65;;;;;;;;;;5018275;28;20050;-73
2022/08/13 07:15:51;;;;;;;16.05;11.02;;;;;;;;;;5018829;28;20366;-73
2022/08/13 07:18:17;;;;;;;16.90;11.23;;;;;;;;;;5016996;28;20037;-73
2022/08/13 07:20:44;;;;;;;14.63;11.10;;;;;;;;;;5016769;28;20038;-74
2022/08/13 07:23:11;;;;;;;14.63;10.75;;;;;;;;;;5016690;28;20523;-73
2022/08/13 07:25:38;;;;;;;14.32;10.98;;;;;;;;;;5016663;28;20049;-73
2022/08/13 07:28:05;;;;;;;14.00;10.80;;;;;;;;;;5016929;28;20111;-73
2022/08/13 07:30:31;;;;;;;15.60;11.27;;;;;;;;;;5015528;28;20053;-73
2022/08/13 07:32:57;;;;;;;17.10;10.85;;;;;;;;;;5019509;28;20417;-70
2022/08/13 07:35:24;;;;;;;17.83;11.85;;;;;;;;;;5016547;28;20073;-70
2022/08/13 07:37:52;;;;;;;14.73;10.63;;;;;;;;;;5016976;28;20046;-69
2022/08/13 07:40:19;;;;;;;12.82;11.13;;;;;;;;;;5016313;28;20034;-69
2022/08/13 07:42:48;;;;;;;15.32;11.45;;;;;;;;;;5016291;28;20044;-70
2022/08/13 07:45:21;;;;;;;62.63;53.70;;;;;;;;;;5016400;28;20046;-68
2022/08/13 07:47:50;;;;;;;55.58;41.85;;;;;;;;;;5015722;28;20125;-70
2022/08/13 07:50:17;;;;;;;18.35;13.23;;;;;;;;;;5014236;28;20504;-69
2022/08/13 07:52:43;;;;;;;17.85;11.75;;;;;;;;;;5015101;28;20050;-70
2022/08/13 07:55:10;;;;;;;18.42;12.23;;;;;;;;;;5015685;28;20078;-70
2022/08/13 07:57:46;;;;;;;13.45;12.15;;;;;;;;;;5016179;28;20042;-70
2022/08/13 08:00:21;;;;;;;14.98;11.77;;;;;;;;;;4996541;28;20042;-70
2022/08/13 08:02:48;;;;;;;15.43;11.93;;;;;;;;;;4996575;28;20038;-69
2022/08/13 08:05:15;;;;;;;15.07;11.95;;;;;;;;;;4996103;28;20101;-70
2022/08/13 08:07:42;;;;;;;16.55;11.48;;;;;;;;;;4995918;28;20047;-70
2022/08/13 08:10:09;;;;;;;16.33;11.90;;;;;;;;;;5013751;28;20531;-70
2022/08/13 08:12:37;;;;;;;27.65;12.43;;;;;;;;;;5015174;28;20042;-70
2022/08/13 08:15:07;;;;;;;19.15;11.48;;;;;;;;;;5015397;28;20037;-70
2022/08/13 08:17:33;;;;;;;19.25;12.13;;;;;;;;;;5015873;28;20100;-70
2022/08/13 08:19:59;;;;;;;14.27;11.43;;;;;;;;;;5015635;28;20041;-70
2022/08/13 08:22:25;;;;;;;15.57;11.48;;;;;;;;;;5015156;28;20520;-70
2022/08/13 08:24:51;;;;;;;15.75;11.68;;;;;;;;;;5015294;28;20038;-69
2022/08/13 08:27:19;;;;;;;16.15;11.80;;;;;;;;;;5015877;28;20041;-70
2022/08/13 08:29:46;;;;;;;16.65;11.95;;;;;;;;;;5015404;28;20393;-70
2022/08/13 08:32:13;;;;;;;14.45;12.10;;;;;;;;;;5014287;28;20042;-70
2022/08/13 08:34:40;;;;;;;15.80;13.35;;;;;;;;;;5014906;28;20176;-71
2022/08/13 08:37:07;;;;;;;15.25;12.23;;;;;;;;;;5015177;28;20452;-73
2022/08/13 08:45:16;;;;;;;17.20;12.30;;;;;;;;;;5014292;28;20057;-72
2022/08/13 08:47:42;;;;;;;15.48;11.70;;;;;;;;;;5012061;28;20054;-73
2022/08/13 08:50:10;;;;;;;22.95;11.85;;;;;;;;;;5011447;28;20038;-73
2022/08/13 08:55:22;;;;;;;12.82;11.52;;;;;;;;;;5011864;28;20052;-74
2022/08/13 08:57:50;;;;;;;12.95;11.50;;;;;;;;;;5013681;28;20120;-74
2022/08/13 09:00:18;;;;;;;14.45;11.57;;;;;;;;;;5012705;28;20033;-74
2022/08/13 09:02:47;;;;;;;12.82;10.88;;;;;;;;;;5013971;28;20401;-73
2022/08/13 09:05:14;;;;;;;14.75;11.93;;;;;;;;;;5014523;28;20045;-73
2022/08/13 09:07:45;;;;;;;15.57;11.80;;;;;;;;;;5014311;28;20045;-74
2022/08/13 09:10:12;;;;;;;17.73;11.80;;;;;;;;;;5013691;28;20042;-73
2022/08/13 09:12:40;;;;;;;14.55;11.38;;;;;;;;;;5014207;28;20045;-73
2022/08/13 09:15:08;;;;;;;14.68;11.20;;;;;;;;;;4995689;28;20040;-73
2022/08/13 09:17:34;;;;;;;13.88;11.70;;;;;;;;;;5013690;28;20113;-74
2022/08/13 09:20:01;;;;;;;15.57;11.77;;;;;;;;;;5013105;28;20124;-75
2022/08/13 09:22:27;;;;;;;14.20;11.27;;;;;;;;;;5011193;28;20044;-73
2022/08/13 09:24:56;;;;;;;17.52;11.15;;;;;;;;;;5012135;28;20071;-75
2022/08/13 09:27:22;;;;;;;18.00;11.35;;;;;;;;;;5011470;28;20138;-75
2022/08/13 09:29:50;;;;;;;15.32;11.40;;;;;;;;;;5013358;28;20050;-73
2022/08/13 09:32:16;;;;;;;14.57;11.57;;;;;;;;;;5013191;28;20042;-72
2022/08/13 09:34:46;;;;;;;15.18;11.45;;;;;;;;;;4993386;28;20511;-73
2022/08/13 09:37:13;;;;;;;15.05;11.40;;;;;;;;;;5001575;28;20095;-74
2022/08/13 09:39:49;;;;;;;15.05;11.90;;;;;;;;;;5012360;28;20365;-73
2022/08/13 09:42:20;;;;;;;11.63;10.43;;;;;;;;;;5013547;28;20042;-72
2022/08/13 09:44:46;;;;;;;13.07;10.60;;;;;;;;;;5013635;28;20038;-73
2022/08/13 09:47:12;;;;;;;16.35;11.15;;;;;;;;;;5014058;28;20042;-71
2022/08/13 09:49:38;;;;;;;12.60;11.15;;;;;;;;;;5013196;28;20468;-71
2022/08/13 09:52:05;;;;;;;15.20;11.25;;;;;;;;;;5013207;28;20512;-71
2022/08/13 09:54:33;;;;;;;13.02;11.00;;;;;;;;;;5012276;28;20050;-71
2022/08/13 09:56:59;;;;;;;13.43;10.68;;;;;;;;;;5016831;28;20041;-70
2022/08/13 09:59:26;;;;;;;13.23;11.20;;;;;;;;;;5018371;28;20042;-70
2022/08/13 10:01:55;;;;;;;12.77;10.80;;;;;;;;;;5001252;28;20137;-71
2022/08/13 10:04:21;;;;;;;13.82;10.50;;;;;;;;;;5017472;28;20041;-71
2022/08/13 10:06:48;;;;;;;14.77;10.85;;;;;;;;;;5016998;28;20454;-71
2022/08/13 10:09:14;;;;;;;15.38;11.00;;;;;;;;;;5016964;28;20370;-71
2022/08/13 10:11:41;;;;;;;10.65;9.75;;;;;;;;;;5016793;28;20041;-71
2022/08/13 10:14:07;;;;;;;15.48;10.80;;;;;;;;;;5016777;28;20103;-71
2022/08/13 10:16:35;;;;;;;13.93;10.50;;;;;;;;;;5001658;28;20401;-72
2022/08/13 10:19:03;;;;;;;12.55;10.57;;;;;;;;;;5016044;28;20113;-71
2022/08/13 10:21:29;;;;;;;13.77;10.13;;;;;;;;;;5015955;28;20049;-70
2022/08/13 10:23:55;;;;;;;16.73;9.98;;;;;;;;;;5017319;28;20044;-71
2022/08/13 10:26:21;;;;;;;12.65;10.52;;;;;;;;;;5017326;28;20358;-71
2022/08/13 10:28:48;;;;;;;15.80;10.15;;;;;;;;;;5017701;28;20045;-71
2022/08/13 10:31:14;;;;;;;12.93;9.90;;;;;;;;;;5017404;28;20069;-70
2022/08/13 10:33:40;;;;;;;13.25;10.50;;;;;;;;;;5017416;28;20052;-71
2022/08/13 10:36:08;;;;;;;14.00;9.85;;;;;;;;;;5017148;28;20045;-71
2022/08/13 10:38:34;;;;;;;11.15;9.90;;;;;;;;;;5017965;28;20044;-71
2022/08/13 10:41:07;;;;;;;12.55;9.90;;;;;;;;;;5017746;28;20073;-71
2022/08/13 10:43:38;;;;;;;10.90;9.20;;;;;;;;;;5016877;28;20064;-71
2022/08/13 10:46:04;;;;;;;14.55;10.20;;;;;;;;;;5017147;28;20125;-71
2022/08/13 10:48:31;;;;;;;15.05;10.02;;;;;;;;;;5016706;28;20465;-70
2022/08/13 10:50:58;;;;;;;10.32;9.43;;;;;;;;;;5017263;28;20041;-76
2022/08/13 10:56:11;;;;;;;12.95;10.13;;;;;;;;;;5016225;28;20417;-72
2022/08/13 10:58:38;;;;;;;12.20;9.90;;;;;;;;;;4997386;28;20046;-72
2022/08/13 11:01:04;;;;;;;10.55;9.52;;;;;;;;;;4996692;28;20039;-72
2022/08/13 11:03:31;;;;;;;14.07;10.07;;;;;;;;;;4996536;28;20038;-72
2022/08/13 11:06:00;;;;;;;18.75;10.30;;;;;;;;;;4995659;28;20041;-72
2022/08/13 11:08:33;;;;;;;12.30;10.10;;;;;;;;;;4997014;28;20043;-72
2022/08/13 11:11:00;;;;;;;16.52;10.45;;;;;;;;;;4997213;28;20632;-72
2022/08/13 11:13:26;;;;;;;11.48;10.27;;;;;;;;;;4996735;28;20046;-72
2022/08/13 11:15:52;;;;;;;11.60;9.88;;;;;;;;;;4997183;28;20073;-72
2022/08/13 11:18:19;;;;;;;11.23;10.05;;;;;;;;;;4996733;28;20053;-72
2022/08/13 11:23:31;;;;;;;12.05;10.15;;;;;;;;;;4996681;28;20126;-72
2022/08/13 11:25:57;;;;;;;12.07;9.52;;;;;;;;;;4996897;28;20395;-72
2022/08/13 11:28:23;;;;;;;10.13;9.13;;;;;;;;;;4996883;28;20046;-72
2022/08/13 11:30:51;;;;;;;10.35;9.27;;;;;;;;;;4997386;28;20053;-72
2022/08/13 11:33:17;;;;;;;12.57;9.68;;;;;;;;;;4997013;28;20053;-72
2022/08/13 11:35:44;;;;;;;12.82;9.35;;;;;;;;;;4997002;28;20050;-72
2022/08/13 11:38:12;;;;;;;12.13;9.55;;;;;;;;;;4996684;28;20125;-72
2022/08/13 11:40:39;;;;;;;10.82;9.48;;;;;;;;;;4996804;28;20066;-72
2022/08/13 11:43:05;;;;;;;11.52;9.23;;;;;;;;;;4996197;28;20744;-72
2022/08/13 11:45:31;;;;;;;12.32;10.05;;;;;;;;;;4996788;28;20125;-72
2022/08/13 11:47:57;;;;;;;12.27;9.55;;;;;;;;;;4996307;28;20058;-72
2022/08/13 11:50:24;;;;;;;11.68;9.70;;;;;;;;;;4996738;28;20042;-72
2022/08/13 11:52:50;;;;;;;12.57;9.40;;;;;;;;;;4997390;28;20057;-72
2022/08/13 11:55:16;;;;;;;15.80;12.07;;;;;;;;;;4996835;28;20034;-72
2022/08/13 11:57:42;;;;;;;14.35;12.50;;;;;;;;;;4996821;28;20050;-72
2022/08/13 12:00:08;;;;;;;15.48;10.70;;;;;;;;;;4996774;28;20042;-72
2022/08/13 12:02:42;;;;;;;13.30;10.10;;;;;;;;;;4996303;28;20134;-72
2022/08/13 12:05:08;;;;;;;11.20;10.13;;;;;;;;;;4996862;28;20089;-72
2022/08/13 12:07:40;;;;;;;13.10;9.48;;;;;;;;;;4996628;28;20038;-72
2022/08/13 12:10:06;;;;;;;10.68;9.52;;;;;;;;;;4978512;28;20405;-72
2022/08/13 12:12:32;;;;;;;11.10;9.63;;;;;;;;;;4996346;28;20061;-72
2022/08/13 12:15:00;;;;;;;11.52;9.93;;;;;;;;;;4996250;28;20050;-72
2022/08/13 12:17:30;;;;;;;11.00;9.40;;;;;;;;;;4996456;28;20046;-72
2022/08/13 12:19:56;;;;;;;11.85;9.88;;;;;;;;;;4996421;28;20486;-72
2022/08/13 12:22:22;;;;;;;10.52;9.30;;;;;;;;;;4996080;28;20115;-72
2022/08/13 12:24:48;;;;;;;11.15;10.15;;;;;;;;;;4996317;28;20088;-72
2022/08/13 12:27:14;;;;;;;10.95;9.65;;;;;;;;;;4996290;28;20046;-72
2022/08/13 12:29:40;;;;;;;11.80;10.15;;;;;;;;;;4995904;28;20378;-72
2022/08/13 12:32:06;;;;;;;11.82;10.52;;;;;;;;;;4995932;28;20046;-72
2022/08/13 12:34:33;;;;;;;10.63;9.55;;;;;;;;;;4996131;28;20050;-72
2022/08/13 12:36:59;;;;;;;12.98;10.18;;;;;;;;;;4995942;28;20050;-72
2022/08/13 12:39:26;;;;;;;12.55;10.23;;;;;;;;;;4996104;28;20478;-72
2022/08/13 12:44:47;;;;;;;11.57;9.93;;;;;;;;;;5478149;23;20462;-74
2022/08/13 12:47:13;;;;;;;13.43;10.07;;;;;;;;;;5015377;28;20045;-72
2022/08/13 12:49:39;;;;;;;15.05;10.52;;;;;;;;;;5016369;28;20068;-72
2022/08/13 12:52:05;;;;;;;11.60;10.27;;;;;;;;;;5015701;28;20044;-72
2022/08/13 12:54:31;;;;;;;13.35;10.80;;;;;;;;;;5015214;28;20080;-72
2022/08/13 12:56:58;;;;;;;10.80;9.70;;;;;;;;;;5015629;28;20041;-72
2022/08/13 12:59:24;;;;;;;11.43;9.90;;;;;;;;;;5014999;28;20052;-72
2022/08/13 13:01:53;;;;;;;11.73;10.55;;;;;;;;;;5015373;28;20095;-72
2022/08/13 13:04:23;;;;;;;12.88;10.73;;;;;;;;;;5015656;28;20080;-72
2022/08/13 13:06:52;;;;;;;12.80;10.52;;;;;;;;;;5015277;28;20037;-72
2022/08/13 13:09:19;;;;;;;19.55;11.20;;;;;;;;;;5014984;28;20053;-72
2022/08/13 13:11:45;;;;;;;11.52;10.38;;;;;;;;;;5014895;28;20045;-72
2022/08/13 13:14:11;;;;;;;11.73;10.48;;;;;;;;;;5015317;28;20127;-72
2022/08/13 13:16:38;;;;;;;12.30;10.60;;;;;;;;;;5015470;28;20038;-72
2022/08/13 13:19:09;;;;;;;11.85;10.40;;;;;;;;;;5015163;28;20045;-72
2022/08/13 13:21:36;;;;;;;13.80;10.23;;;;;;;;;;5015396;28;20077;-72
2022/08/13 13:24:03;;;;;;;13.27;10.82;;;;;;;;;;5015520;28;20128;-72
2022/08/13 13:26:29;;;;;;;13.48;10.85;;;;;;;;;;5015026;28;20061;-72
2022/08/13 13:28:56;;;;;;;12.38;10.50;;;;;;;;;;5014414;28;20042;-72
2022/08/13 13:31:23;;;;;;;13.63;11.15;;;;;;;;;;5014964;28;20046;-72
2022/08/13 13:33:49;;;;;;;14.43;11.10;;;;;;;;;;5014717;28;20483;-72
2022/08/13 13:36:16;;;;;;;11.88;10.68;;;;;;;;;;5014954;28;20046;-72
2022/08/13 13:38:42;;;;;;;15.25;10.73;;;;;;;;;;5014723;28;20149;-72
2022/08/13 13:41:08;;;;;;;15.63;10.65;;;;;;;;;;5014939;28;20049;-72
2022/08/13 13:43:35;;;;;;;14.07;11.35;;;;;;;;;;5014754;28;20050;-72
2022/08/13 13:46:05;;;;;;;15.82;11.35;;;;;;;;;;5014781;28;20044;-72
2022/08/13 13:48:36;;;;;;;16.70;10.82;;;;;;;;;;5014301;28;20038;-72
2022/08/13 13:51:04;;;;;;;12.55;11.18;;;;;;;;;;5014081;28;20058;-72
2022/08/13 13:53:33;;;;;;;15.75;11.07;;;;;;;;;;5014436;28;20057;-72
2022/08/13 13:55:59;;;;;;;13.68;11.18;;;;;;;;;;5014417;28;20045;-72
2022/08/13 13:58:25;;;;;;;17.40;12.18;;;;;;;;;;5014303;28;20046;-72
2022/08/13 14:00:52;;;;;;;13.35;11.15;;;;;;;;;;5014161;28;20038;-72
2022/08/13 14:03:18;;;;;;;12.70;11.48;;;;;;;;;;5014479;28;20516;-72
2022/08/13 14:05:45;;;;;;;14.30;11.15;;;;;;;;;;5014388;28;20484;-72
2022/08/13 14:08:12;;;;;;;15.65;10.90;;;;;;;;;;5014130;28;20046;-72
2022/08/13 14:10:42;;;;;;;14.45;10.63;;;;;;;;;;5014084;28;20500;-72
2022/08/13 14:13:08;;;;;;;13.80;10.27;;;;;;;;;;5014155;28;20081;-72
2022/08/13 14:15:35;;;;;;;11.38;10.27;;;;;;;;;;5014119;28;20030;-72
2022/08/13 14:18:06;;;;;;;10.82;9.80;;;;;;;;;;5013886;28;20396;-72
2022/08/13 14:20:33;;;;;;;11.30;10.20;;;;;;;;;;5013658;28;20412;-72
2022/08/13 14:23:00;;;;;;;10.38;9.38;;;;;;;;;;5014280;28;20069;-72
2022/08/13 14:25:26;;;;;;;10.90;9.73;;;;;;;;;;5014036;28;20076;-72
2022/08/13 14:27:53;;;;;;;11.73;10.52;;;;;;;;;;5014136;28;20041;-72
2022/08/13 14:30:19;;;;;;;10.65;9.48;;;;;;;;;;5013737;28;20072;-72
2022/08/13 14:32:45;;;;;;;11.07;9.52;;;;;;;;;;5013830;28;20045;-72
2022/08/13 14:35:14;;;;;;;10.45;9.35;;;;;;;;;;5014005;28;20053;-72
2022/08/13 14:37:41;;;;;;;9.98;8.98;;;;;;;;;;5014084;28;20038;-72
2022/08/13 14:40:09;;;;;;;11.02;9.70;;;;;;;;;;5016684;28;20458;-72
2022/08/13 14:42:41;;;;;;;11.68;8.93;;;;;;;;;;5017171;28;20444;-72
2022/08/13 14:47:56;;;;;;;10.98;9.63;;;;;;;;;;5017327;28;20041;-72
2022/08/13 14:50:23;;;;;;;11.23;9.50;;;;;;;;;;5017681;28;20068;-72
2022/08/13 14:52:50;;;;;;;10.98;8.73;;;;;;;;;;5017516;28;20033;-72
2022/08/13 14:55:18;;;;;;;12.13;9.63;;;;;;;;;;5017639;28;20077;-72